createdAt,value
2017-12-05T00:01:47.620Z,36.50
2017-12-05T00:04:14.343Z,35.67
2017-12-05T00:06:40.341Z,34.23
2017-12-05T00:09:06.692Z,35.63
2017-12-05T00:11:35.231Z,33.37
2017-12-05T00:14:02.736Z,32.07
2017-12-05T00:16:30.496Z,42.03
2017-12-05T00:18:59.232Z,34.03
2017-12-05T00:21:26.227Z,31.57
2017-12-05T00:23:53.044Z,35.23
2017-12-05T00:26:21.250Z,31.73
2017-12-05T00:28:47.250Z,34.47
2017-12-05T00:31:17.254Z,34.00
2017-12-05T00:33:43.839Z,33.17
2017-12-05T00:36:11.778Z,36.80
2017-12-05T00:38:38.721Z,37.60
2017-12-05T00:41:06.046Z,38.70
2017-12-05T00:43:32.936Z,34.90
2017-12-05T00:45:59.325Z,35.10
2017-12-05T00:48:25.647Z,50.37
2017-12-05T00:50:52.209Z,31.87
2017-12-05T00:53:18.215Z,37.43
2017-12-05T00:55:45.627Z,37.03
2017-12-05T00:58:12.861Z,39.33
2017-12-05T01:00:39.251Z,35.83
2017-12-05T01:03:07.695Z,38.67
2017-12-05T01:05:33.687Z,38.90
2017-12-05T01:07:59.622Z,36.70
2017-12-05T01:10:26.486Z,38.67
2017-12-05T01:12:52.448Z,39.13
2017-12-05T01:15:19.971Z,40.00
2017-12-05T01:17:46.415Z,37.57
2017-12-05T01:20:16.659Z,39.73
2017-12-05T01:22:43.622Z,36.87
2017-12-05T01:25:10.198Z,39.37
2017-12-05T01:27:38.879Z,36.50
2017-12-05T01:30:07.657Z,33.33
2017-12-05T01:32:34.315Z,40.63
2017-12-05T01:35:02.688Z,32.60
2017-12-05T01:37:29.197Z,36.80
2017-12-05T01:39:55.879Z,38.67
2017-12-05T01:42:23.270Z,39.77
2017-12-05T01:44:49.456Z,37.43
2017-12-05T01:47:16.392Z,38.00
2017-12-05T01:49:43.308Z,39.63
2017-12-05T01:52:09.249Z,35.90
2017-12-05T01:54:35.218Z,39.40
2017-12-05T01:57:01.631Z,38.33
2017-12-05T01:59:27.984Z,39.10
2017-12-05T02:01:54.466Z,42.43
2017-12-05T02:04:21.320Z,35.37
2017-12-05T02:06:48.893Z,38.60
2017-12-05T02:09:15.046Z,34.77
2017-12-05T02:11:41.572Z,32.87
2017-12-05T02:14:07.642Z,36.87
2017-12-05T02:16:35.682Z,37.13
2017-12-05T02:19:02.457Z,35.63
2017-12-05T02:21:29.036Z,40.73
2017-12-05T02:23:55.035Z,34.50
2017-12-05T02:26:21.348Z,35.77
2017-12-05T02:28:48.723Z,36.47
2017-12-05T02:31:15.498Z,34.90
2017-12-05T02:33:42.040Z,37.63
2017-12-05T02:36:08.671Z,34.60
2017-12-05T02:38:35.455Z,38.00
2017-12-05T02:41:08.449Z,34.57
2017-12-05T02:43:36.875Z,36.50
2017-12-05T02:46:02.864Z,34.20
2017-12-05T02:48:29.649Z,35.83
2017-12-05T02:50:56.367Z,35.90
2017-12-05T02:53:23.163Z,32.87
2017-12-05T02:55:51.056Z,40.47
2017-12-05T02:58:17.803Z,36.43
2017-12-05T03:00:43.859Z,36.00
2017-12-05T03:03:09.868Z,40.33
2017-12-05T03:05:36.592Z,38.60
2017-12-05T03:08:02.564Z,38.27
2017-12-05T03:10:30.144Z,37.77
2017-12-05T03:12:56.183Z,36.70
2017-12-05T03:15:22.993Z,37.90
2017-12-05T03:17:53.005Z,40.00
2017-12-05T03:20:18.937Z,38.87
2017-12-05T03:22:46.976Z,43.53
2017-12-05T03:25:14.225Z,36.70
2017-12-05T03:27:41.055Z,42.20
2017-12-05T03:30:07.907Z,33.83
2017-12-05T03:32:33.880Z,39.40
2017-12-05T03:35:12.228Z,34.77
2017-12-05T03:37:42.266Z,37.80
2017-12-05T03:40:09.392Z,35.60
2017-12-05T03:42:36.345Z,35.60
2017-12-05T03:45:04.016Z,36.00
2017-12-05T03:47:29.978Z,38.27
2017-12-05T03:49:56.829Z,34.13
2017-12-05T03:52:23.145Z,33.60
2017-12-05T03:54:49.843Z,35.30
2017-12-05T03:57:17.323Z,40.17
2017-12-05T03:59:43.288Z,37.23
2017-12-05T04:02:09.270Z,35.83
2017-12-05T04:04:37.501Z,39.23
2017-12-05T04:07:04.816Z,37.77
2017-12-05T04:09:31.283Z,37.60
2017-12-05T04:11:57.315Z,32.00
2017-12-05T04:14:24.521Z,32.47
2017-12-05T04:16:53.150Z,39.30
2017-12-05T04:19:19.264Z,36.13
2017-12-05T04:21:46.062Z,37.67
2017-12-05T04:24:12.770Z,38.97
2017-12-05T04:26:41.062Z,41.67
2017-12-05T04:29:07.407Z,38.13
2017-12-05T04:31:33.488Z,40.60
2017-12-05T04:33:59.419Z,40.40
2017-12-05T04:36:26.347Z,34.90
2017-12-05T04:38:54.524Z,37.50
2017-12-05T04:43:52.672Z,44.23
2017-12-05T04:46:21.542Z,36.77
2017-12-05T04:48:48.428Z,39.00
2017-12-05T04:51:16.420Z,41.53
2017-12-05T04:53:44.310Z,39.37
2017-12-05T04:56:10.303Z,31.50
2017-12-05T04:58:40.260Z,32.23
2017-12-05T05:01:06.831Z,34.57
2017-12-05T05:03:32.752Z,37.60
2017-12-05T05:05:59.693Z,35.73
2017-12-05T05:08:25.672Z,35.97
2017-12-05T05:10:51.656Z,38.13
2017-12-05T05:13:17.599Z,36.97
2017-12-05T05:15:43.686Z,39.23
2017-12-05T05:18:09.727Z,37.77
2017-12-05T05:20:36.411Z,41.80
2017-12-05T05:23:03.136Z,39.90
2017-12-05T05:25:30.061Z,39.00
2017-12-05T05:27:56.966Z,42.57
2017-12-05T05:30:22.931Z,38.77
2017-12-05T05:32:48.892Z,42.47
2017-12-05T05:35:18.093Z,36.23
2017-12-05T05:37:45.349Z,37.77
2017-12-05T05:40:11.401Z,41.17
2017-12-05T05:42:37.398Z,44.40
2017-12-05T05:45:03.367Z,43.37
2017-12-05T05:47:30.028Z,44.60
2017-12-05T05:49:56.052Z,41.63
2017-12-05T05:52:22.885Z,38.50
2017-12-05T05:54:52.369Z,38.73
2017-12-05T05:57:19.831Z,40.43
2017-12-05T05:59:47.329Z,43.90
2017-12-05T06:02:14.982Z,44.13
2017-12-05T06:04:41.035Z,43.87
2017-12-05T06:07:08.449Z,36.10
2017-12-05T06:09:35.258Z,37.70
2017-12-05T06:12:04.015Z,43.53
2017-12-05T06:14:30.898Z,38.63
2017-12-05T06:16:58.469Z,41.27
2017-12-05T06:19:24.529Z,44.67
2017-12-05T06:21:51.891Z,42.10
2017-12-05T06:24:19.657Z,41.80
2017-12-05T06:26:46.315Z,36.40
2017-12-05T06:29:12.624Z,41.63
2017-12-05T06:31:39.509Z,36.67
2017-12-05T06:34:07.868Z,46.40
2017-12-05T06:36:37.623Z,43.23
2017-12-05T06:39:08.542Z,43.30
2017-12-05T06:41:37.396Z,36.60
2017-12-05T06:44:05.863Z,41.27
2017-12-05T06:46:34.643Z,40.67
2017-12-05T06:49:00.616Z,47.00
2017-12-05T06:51:28.812Z,47.67
2017-12-05T06:53:54.837Z,40.80
2017-12-05T06:56:20.867Z,39.87
2017-12-05T06:58:51.401Z,45.70
2017-12-05T07:01:20.126Z,41.63
2017-12-05T07:03:46.146Z,41.60
2017-12-05T07:06:13.879Z,46.40
2017-12-05T07:08:40.709Z,43.90
2017-12-05T07:11:06.681Z,41.00
2017-12-05T07:13:34.057Z,39.03
2017-12-05T07:16:00.287Z,40.20
2017-12-05T07:18:26.612Z,35.57
2017-12-05T07:23:40.977Z,40.37
2017-12-05T07:26:10.180Z,38.63
2017-12-05T07:28:39.838Z,36.77
2017-12-05T07:31:06.071Z,35.00
2017-12-05T07:33:47.947Z,40.33
2017-12-05T07:38:57.062Z,36.70
2017-12-05T07:41:23.914Z,33.73
2017-12-05T07:43:57.324Z,34.73
2017-12-05T07:46:33.160Z,34.90
2017-12-05T07:49:00.608Z,36.10
2017-12-05T07:51:28.743Z,31.00
2017-12-05T07:53:55.677Z,33.97
2017-12-05T07:56:25.052Z,34.77
2017-12-05T07:58:52.784Z,28.67
2017-12-05T08:01:20.069Z,29.00
2017-12-05T08:03:47.634Z,26.73
2017-12-05T08:06:17.551Z,30.77
2017-12-05T08:08:45.528Z,30.23
2017-12-05T08:11:12.552Z,28.73
2017-12-05T08:13:39.526Z,25.37
2017-12-05T08:16:06.365Z,28.27
2017-12-05T08:18:33.968Z,28.23
2017-12-05T08:21:04.834Z,27.70
2017-12-05T08:23:31.256Z,28.50
2017-12-05T08:25:57.275Z,27.90
2017-12-05T08:28:24.883Z,29.40
2017-12-05T08:30:51.707Z,26.90
2017-12-05T08:33:23.633Z,23.70
2017-12-05T08:35:54.125Z,24.97
2017-12-05T08:38:23.565Z,28.60
2017-12-05T08:40:52.645Z,26.07
2017-12-05T08:43:35.227Z,27.80
2017-12-05T08:46:01.512Z,24.63
2017-12-05T08:48:29.530Z,23.20
2017-12-05T08:50:58.268Z,22.97
2017-12-05T08:53:24.372Z,21.60
2017-12-05T08:55:50.363Z,25.00
2017-12-05T08:58:17.195Z,23.87
2017-12-05T09:00:44.869Z,23.20
2017-12-05T09:03:11.993Z,25.47
2017-12-05T09:05:39.323Z,21.00
2017-12-05T09:08:10.202Z,21.37
2017-12-05T09:10:36.866Z,23.13
2017-12-05T09:13:06.308Z,22.33
2017-12-05T09:15:33.142Z,20.40
2017-12-05T09:18:00.096Z,23.07
2017-12-05T09:20:27.765Z,16.97
2017-12-05T09:22:53.950Z,23.20
2017-12-05T09:25:19.946Z,17.73
2017-12-05T09:27:45.903Z,20.07
2017-12-05T09:30:13.196Z,22.60
2017-12-05T09:32:39.425Z,20.03
2017-12-05T09:35:05.468Z,17.17
2017-12-05T09:37:32.511Z,18.40
2017-12-05T09:39:58.547Z,18.20
2017-12-05T09:42:24.496Z,15.70
2017-12-05T09:44:50.623Z,18.13
2017-12-05T09:47:17.423Z,20.27
2017-12-05T09:49:43.716Z,16.93
2017-12-05T09:52:09.667Z,18.70
2017-12-05T09:54:35.660Z,17.30
2017-12-05T09:57:01.834Z,17.90
2017-12-05T09:59:27.872Z,18.60
2017-12-05T10:01:53.870Z,18.40
2017-12-05T10:04:20.688Z,20.97
2017-12-05T10:06:47.279Z,17.73
2017-12-05T10:09:13.296Z,19.10
2017-12-05T10:11:39.289Z,15.77
2017-12-05T10:14:05.452Z,15.90
2017-12-05T10:16:31.435Z,15.30
2017-12-05T10:18:57.383Z,16.67
2017-12-05T10:21:23.420Z,19.63
2017-12-05T10:23:49.418Z,19.83
2017-12-05T10:26:15.446Z,18.67
2017-12-05T10:28:41.467Z,18.47
2017-12-05T10:31:08.202Z,18.60
2017-12-05T10:33:34.207Z,17.27
2017-12-05T10:36:00.883Z,16.90
2017-12-05T10:38:27.351Z,16.23
2017-12-05T10:40:53.915Z,17.60
2017-12-05T10:43:20.655Z,22.70
2017-12-05T10:45:46.741Z,16.10
2017-12-05T10:48:15.883Z,19.30
2017-12-05T10:50:42.726Z,18.57
2017-12-05T10:55:43.276Z,15.67
2017-12-05T10:58:10.211Z,18.37
2017-12-05T11:00:36.975Z,17.03
2017-12-05T11:03:03.163Z,20.80
2017-12-05T11:05:29.244Z,25.90
2017-12-05T11:07:55.683Z,17.70
2017-12-05T11:10:21.818Z,20.90
2017-12-05T11:12:50.378Z,23.87
2017-12-05T11:15:20.201Z,18.20
2017-12-05T11:17:49.345Z,20.90
2017-12-05T11:20:15.320Z,19.90
2017-12-05T11:22:41.429Z,17.50
2017-12-05T11:25:08.392Z,21.40
2017-12-05T11:30:07.506Z,17.20
2017-12-05T11:32:34.318Z,21.27
2017-12-05T11:35:03.251Z,18.00
2017-12-05T11:37:30.143Z,19.33
2017-12-05T11:39:56.196Z,18.43
2017-12-05T11:42:22.175Z,22.13
2017-12-05T11:44:48.944Z,19.87
2017-12-05T11:47:20.472Z,18.23
2017-12-05T11:49:52.347Z,25.20
2017-12-05T11:52:22.067Z,22.50
2017-12-05T11:54:49.132Z,21.23
2017-12-05T11:57:23.179Z,20.33
2017-12-05T11:59:49.533Z,31.43
2017-12-05T12:02:17.991Z,25.73
2017-12-05T12:04:45.119Z,19.37
2017-12-05T12:07:11.436Z,25.60
2017-12-05T12:09:41.078Z,22.13
2017-12-05T12:12:08.142Z,17.87
2017-12-05T12:14:35.159Z,23.10
2017-12-05T12:17:01.222Z,19.33
2017-12-05T12:19:27.256Z,25.53
2017-12-05T12:21:53.387Z,24.27
2017-12-05T12:24:21.595Z,21.67
2017-12-05T12:26:48.319Z,24.87
2017-12-05T12:29:16.569Z,19.30
2017-12-05T12:31:42.591Z,23.93
2017-12-05T12:34:08.828Z,19.70
2017-12-05T12:36:35.595Z,30.53
2017-12-05T12:39:01.572Z,24.57
2017-12-05T12:41:28.511Z,20.87
2017-12-05T12:43:57.235Z,17.43
2017-12-05T12:46:24.994Z,24.50
2017-12-05T12:48:52.158Z,22.63
2017-12-05T12:51:19.566Z,26.40
2017-12-05T12:53:45.546Z,17.40
2017-12-05T12:56:11.494Z,17.00
2017-12-05T12:58:39.358Z,22.20
2017-12-05T13:01:06.138Z,16.50
2017-12-05T13:03:38.094Z,16.20
2017-12-05T13:06:05.855Z,24.10
2017-12-05T13:08:33.698Z,22.70
2017-12-05T13:11:02.040Z,20.50
2017-12-05T13:13:30.982Z,22.23
2017-12-05T13:15:59.078Z,19.50
2017-12-05T13:18:25.996Z,17.70
2017-12-05T13:20:55.323Z,20.53
2017-12-05T13:25:57.178Z,18.80
2017-12-05T13:28:23.137Z,18.10
2017-12-05T13:30:50.033Z,19.47
2017-12-05T13:33:16.031Z,18.93
2017-12-05T13:35:43.756Z,16.03
2017-12-05T13:38:10.573Z,18.43
2017-12-05T13:40:37.547Z,19.47
2017-12-05T13:43:04.542Z,19.83
2017-12-05T13:45:30.601Z,22.70
2017-12-05T13:47:57.141Z,22.30
2017-12-05T13:50:23.131Z,19.57
2017-12-05T13:52:53.195Z,16.13
2017-12-05T13:55:19.205Z,18.20
2017-12-05T13:57:45.243Z,16.80
2017-12-05T14:00:12.244Z,24.30
2017-12-05T14:02:38.234Z,19.00
2017-12-05T14:05:06.768Z,16.90
2017-12-05T14:07:33.571Z,19.13
2017-12-05T14:10:02.027Z,17.43
2017-12-05T14:12:29.384Z,21.90
2017-12-05T14:14:55.709Z,23.90
2017-12-05T14:17:23.279Z,17.70
2017-12-05T14:19:49.272Z,22.57
2017-12-05T14:22:16.243Z,21.77
2017-12-05T14:24:42.721Z,23.40
2017-12-05T14:27:10.475Z,21.97
2017-12-05T14:29:36.912Z,15.93
2017-12-05T14:32:03.036Z,19.40
2017-12-05T14:34:29.780Z,20.57
2017-12-05T14:36:56.789Z,18.50
2017-12-05T14:41:53.415Z,20.43
2017-12-05T14:44:20.094Z,16.90
2017-12-05T14:46:46.167Z,16.57
2017-12-05T14:49:12.243Z,17.50
2017-12-05T14:51:38.257Z,16.37
2017-12-05T14:54:04.265Z,20.80
2017-12-05T14:56:30.286Z,20.80
2017-12-05T14:58:56.287Z,16.57
2017-12-05T15:01:22.271Z,16.83
2017-12-05T15:03:48.497Z,20.67
2017-12-05T15:06:15.389Z,19.67
2017-12-05T15:08:42.431Z,20.57
2017-12-05T15:11:08.430Z,18.20
2017-12-05T15:13:34.426Z,19.47
2017-12-05T15:16:00.375Z,21.97
2017-12-05T15:18:26.911Z,18.10
2017-12-05T15:20:53.886Z,21.33
2017-12-05T15:23:20.650Z,17.10
2017-12-05T15:25:47.343Z,20.53
2017-12-05T15:28:13.337Z,18.47
2017-12-05T15:30:39.967Z,18.97
2017-12-05T15:33:05.934Z,20.43
2017-12-05T15:35:31.890Z,17.43
2017-12-05T15:37:57.856Z,23.23
2017-12-05T15:40:23.839Z,20.20
2017-12-05T15:42:49.879Z,20.10
2017-12-05T15:45:16.854Z,22.37
2017-12-05T15:47:44.843Z,22.90
2017-12-05T15:50:10.773Z,21.20
2017-12-05T15:52:37.619Z,22.00
2017-12-05T15:55:05.338Z,21.97
2017-12-05T15:57:32.156Z,19.70
2017-12-05T15:59:58.862Z,21.47
2017-12-05T16:02:26.231Z,21.10
2017-12-05T16:04:52.219Z,21.77
2017-12-05T16:07:19.194Z,21.03
2017-12-05T16:09:46.041Z,21.83
2017-12-05T16:12:13.381Z,25.03
2017-12-05T16:14:39.479Z,24.80
2017-12-05T16:17:05.424Z,26.17
2017-12-05T16:19:31.674Z,23.73
2017-12-05T16:21:58.056Z,21.33
2017-12-05T16:24:24.048Z,25.90
2017-12-05T16:26:50.023Z,24.07
2017-12-05T16:29:18.579Z,27.27
2017-12-05T16:31:44.880Z,24.70
2017-12-05T16:34:11.342Z,28.20
2017-12-05T16:36:40.409Z,26.80
2017-12-05T16:39:06.621Z,31.03
2017-12-05T16:41:32.639Z,26.27
2017-12-05T16:43:58.867Z,30.50
2017-12-05T16:46:26.582Z,24.50
2017-12-05T16:48:52.603Z,26.80
2017-12-05T16:51:20.748Z,23.90
2017-12-05T16:53:48.290Z,25.20
2017-12-05T16:56:16.278Z,30.13
2017-12-05T16:58:43.442Z,28.20
2017-12-05T17:01:10.266Z,27.07
2017-12-05T17:03:36.247Z,31.63
2017-12-05T17:06:03.752Z,29.30
2017-12-05T17:08:29.831Z,28.47
2017-12-05T17:10:55.958Z,26.40
2017-12-05T17:13:22.698Z,25.43
2017-12-05T17:15:50.099Z,26.20
2017-12-05T17:18:16.086Z,25.63
2017-12-05T17:20:43.730Z,29.73
2017-12-05T17:23:09.790Z,26.73
2017-12-05T17:25:35.784Z,27.10
2017-12-05T17:28:01.997Z,32.40
2017-12-05T17:30:29.933Z,27.00
2017-12-05T17:32:57.827Z,25.23
2017-12-05T17:35:23.781Z,24.53
2017-12-05T17:37:50.553Z,26.03
2017-12-05T17:40:17.314Z,25.10
2017-12-05T17:42:44.005Z,25.67
2017-12-05T17:45:09.965Z,21.90
2017-12-05T17:47:36.741Z,28.87
2017-12-05T17:50:02.895Z,24.10
2017-12-05T17:52:28.826Z,24.63
2017-12-05T17:54:54.776Z,25.53
2017-12-05T17:57:20.805Z,29.10
2017-12-05T17:59:46.810Z,28.67
2017-12-05T18:02:12.821Z,27.17
2017-12-05T18:04:38.756Z,24.57
2017-12-05T18:07:05.512Z,35.10
2017-12-05T18:09:31.892Z,26.77
2017-12-05T18:11:57.849Z,28.70
2017-12-05T18:14:24.514Z,28.47
2017-12-05T18:16:50.798Z,31.47
2017-12-05T18:19:16.853Z,30.63
2017-12-05T18:21:42.989Z,25.40
2017-12-05T18:24:09.000Z,23.33
2017-12-05T18:26:34.970Z,31.73
2017-12-05T18:29:00.892Z,28.73
2017-12-05T18:31:26.781Z,25.77
2017-12-05T18:33:53.480Z,24.00
2017-12-05T18:36:19.482Z,27.87
2017-12-05T18:38:45.451Z,23.77
2017-12-05T18:41:12.164Z,23.70
2017-12-05T18:43:38.574Z,24.63
2017-12-05T18:46:04.715Z,27.70
2017-12-05T18:48:30.792Z,27.33
2017-12-05T18:50:56.740Z,22.93
2017-12-05T18:53:22.660Z,24.47
2017-12-05T18:55:48.635Z,30.33
2017-12-05T18:58:15.294Z,27.83
2017-12-05T19:00:41.258Z,26.27
2017-12-05T19:03:07.239Z,30.13
2017-12-05T19:05:33.165Z,32.77
2017-12-05T19:07:59.196Z,27.73
2017-12-05T19:10:25.180Z,24.33
2017-12-05T19:12:51.853Z,23.00
2017-12-05T19:15:17.809Z,25.43
2017-12-05T19:17:43.738Z,25.67
2017-12-05T19:20:09.649Z,26.70
2017-12-05T19:22:37.067Z,25.93
2017-12-05T19:25:03.974Z,25.73
2017-12-05T19:27:29.943Z,25.30
2017-12-05T19:29:55.839Z,30.30
2017-12-05T19:32:21.902Z,25.33
2017-12-05T19:34:50.470Z,24.10
2017-12-05T19:37:17.206Z,27.13
2017-12-05T19:39:43.126Z,25.10
2017-12-05T19:42:09.131Z,25.60
2017-12-05T19:44:35.163Z,25.87
2017-12-05T19:47:01.125Z,20.70
2017-12-05T19:49:27.063Z,31.20
2017-12-05T19:51:53.046Z,23.13
2017-12-05T19:54:19.922Z,33.10
2017-12-05T19:56:46.528Z,31.47
2017-12-05T19:59:12.685Z,29.10
2017-12-05T20:01:38.665Z,23.60
2017-12-05T20:04:05.442Z,41.57
2017-12-05T20:06:31.402Z,23.33
2017-12-05T20:08:57.558Z,26.10
2017-12-05T20:11:26.035Z,23.73
2017-12-05T20:13:51.986Z,22.47
2017-12-05T20:16:18.034Z,23.47
2017-12-05T20:18:44.756Z,24.57
2017-12-05T20:21:11.414Z,28.87
2017-12-05T20:23:37.339Z,22.13
2017-12-05T20:26:04.666Z,24.47
2017-12-05T20:28:32.888Z,25.17
2017-12-05T20:30:59.774Z,25.00
2017-12-05T20:33:25.714Z,28.23
2017-12-05T20:35:51.654Z,22.97
2017-12-05T20:38:21.575Z,24.90
2017-12-05T20:40:48.414Z,24.87
2017-12-05T20:43:17.228Z,25.17
2017-12-05T20:45:43.160Z,22.60
2017-12-05T20:48:09.736Z,28.40
2017-12-05T20:50:36.408Z,23.33
2017-12-05T20:53:05.825Z,24.50
2017-12-05T20:55:33.404Z,32.53
2017-12-05T20:58:00.011Z,32.00
2017-12-05T21:00:32.179Z,25.37
2017-12-05T21:03:03.059Z,25.73
2017-12-05T21:05:31.831Z,26.43
2017-12-05T21:07:57.781Z,32.33
2017-12-05T21:12:57.717Z,25.40
2017-12-05T21:15:24.371Z,22.13
2017-12-05T21:17:51.570Z,29.20
2017-12-05T21:20:21.103Z,33.40
2017-12-05T21:22:49.890Z,26.80
2017-12-05T21:25:18.186Z,25.07
2017-12-05T21:27:45.060Z,25.37
2017-12-05T21:32:47.518Z,28.23
2017-12-05T21:35:13.449Z,30.60
2017-12-05T21:37:39.501Z,26.17
2017-12-05T21:40:06.540Z,28.20
2017-12-05T21:42:32.438Z,24.00
2017-12-05T21:44:59.883Z,29.30
2017-12-05T21:47:25.820Z,25.53
2017-12-05T21:49:51.746Z,26.10
2017-12-05T21:52:18.209Z,24.87
2017-12-05T21:54:44.971Z,27.77
2017-12-05T21:57:11.229Z,25.87
2017-12-05T21:59:37.187Z,31.13
2017-12-05T22:02:06.969Z,30.20
2017-12-05T22:04:32.947Z,28.70
2017-12-05T22:06:59.749Z,26.77
2017-12-05T22:09:30.639Z,27.13
2017-12-05T22:11:58.848Z,26.03
2017-12-05T22:14:28.419Z,27.93
2017-12-05T22:16:57.730Z,25.20
2017-12-05T22:19:26.538Z,28.63
2017-12-05T22:21:53.850Z,28.97
2017-12-05T22:24:20.719Z,22.97
2017-12-05T22:26:48.690Z,29.53
2017-12-05T22:29:19.811Z,26.90
2017-12-05T22:31:47.365Z,27.07
2017-12-05T22:34:13.314Z,27.57
2017-12-05T22:36:39.418Z,25.20
2017-12-05T22:39:05.429Z,34.37
2017-12-05T22:41:31.354Z,26.37
2017-12-05T22:43:59.098Z,27.00
2017-12-05T22:46:25.032Z,24.60
2017-12-05T22:48:50.931Z,27.23
2017-12-05T22:51:16.863Z,24.13
2017-12-05T22:53:45.124Z,26.67
2017-12-05T22:56:11.044Z,27.90
2017-12-05T22:58:36.954Z,26.57
2017-12-05T23:01:03.255Z,27.63
2017-12-05T23:03:30.662Z,29.80
2017-12-05T23:05:58.732Z,29.10
2017-12-05T23:08:27.174Z,28.40
2017-12-05T23:10:55.864Z,27.83
2017-12-05T23:13:21.783Z,28.63
2017-12-05T23:15:48.705Z,28.43
2017-12-05T23:18:15.095Z,29.37
2017-12-05T23:20:41.364Z,28.97
2017-12-05T23:23:11.211Z,30.93
2017-12-05T23:25:37.795Z,26.93
2017-12-05T23:28:04.484Z,25.10
2017-12-05T23:30:30.388Z,28.80
2017-12-05T23:32:56.293Z,23.73
2017-12-05T23:35:22.282Z,27.87
2017-12-05T23:37:52.650Z,30.43
2017-12-05T23:40:18.586Z,27.43
2017-12-05T23:42:46.757Z,29.57
2017-12-05T23:45:14.317Z,25.60
2017-12-05T23:47:42.466Z,30.50
2017-12-05T23:50:23.665Z,26.53
2017-12-05T23:52:49.615Z,31.23
2017-12-05T23:55:15.579Z,30.30
2017-12-05T23:57:41.484Z,26.53
